sensor_id;sensor_type;location;lat;lon;timestamp;P1;durP1;ratioP1;P2;durP2;ratioP2
54145;SDS011;65909;49.422;7.738;2023-03-16T00:00:55;14.27;;;7.30;;
54145;SDS011;65909;49.422;7.738;2023-03-16T00:03:20;12.48;;;7.32;;
54145;SDS011;65909;49.422;7.738;2023-03-16T00:05:49;11.55;;;7.20;;
54145;SDS011;65909;49.422;7.738;2023-03-16T00:08:16;12.68;;;7.18;;
54145;SDS011;65909;49.422;7.738;2023-03-16T00:10:43;13.23;;;7.13;;
54145;SDS011;65909;49.422;7.738;2023-03-16T00:13:14;14.27;;;6.93;;
54145;SDS011;65909;49.422;7.738;2023-03-16T00:15:41;12.52;;;7.80;;
54145;SDS011;65909;49.422;7.738;2023-03-16T00:18:15;16.85;;;7.50;;
54145;SDS011;65909;49.422;7.738;2023-03-16T00:20:40;12.32;;;6.88;;
54145;SDS011;65909;49.422;7.738;2023-03-16T00:23:05;12.05;;;6.85;;
54145;SDS011;65909;49.422;7.738;2023-03-16T00:25:31;16.45;;;8.05;;
54145;SDS011;65909;49.422;7.738;2023-03-16T00:27:57;13.38;;;7.63;;
54145;SDS011;65909;49.422;7.738;2023-03-16T00:30:23;15.20;;;7.38;;
54145;SDS011;65909;49.422;7.738;2023-03-16T00:32:48;14.40;;;7.22;;
54145;SDS011;65909;49.422;7.738;2023-03-16T00:35:14;15.52;;;8.00;;
54145;SDS011;65909;49.422;7.738;2023-03-16T00:37:39;12.35;;;7.22;;
54145;SDS011;65909;49.422;7.738;2023-03-16T00:40:07;11.30;;;6.43;;
54145;SDS011;65909;49.422;7.738;2023-03-16T00:42:33;13.15;;;6.38;;
54145;SDS011;65909;49.422;7.738;2023-03-16T00:44:59;13.73;;;7.13;;
54145;SDS011;65909;49.422;7.738;2023-03-16T00:47:26;11.98;;;5.82;;
54145;SDS011;65909;49.422;7.738;2023-03-16T00:49:56;12.18;;;7.88;;
54145;SDS011;65909;49.422;7.738;2023-03-16T00:52:23;10.75;;;6.68;;
54145;SDS011;65909;49.422;7.738;2023-03-16T00:54:49;14.32;;;7.28;;
54145;SDS011;65909;49.422;7.738;2023-03-16T00:57:17;14.05;;;7.70;;
54145;SDS011;65909;49.422;7.738;2023-03-16T00:59:44;10.55;;;6.97;;
54145;SDS011;65909;49.422;7.738;2023-03-16T01:02:10;11.70;;;7.25;;
54145;SDS011;65909;49.422;7.738;2023-03-16T01:04:36;14.80;;;7.03;;
54145;SDS011;65909;49.422;7.738;2023-03-16T01:07:04;11.95;;;6.40;;
54145;SDS011;65909;49.422;7.738;2023-03-16T01:09:30;12.68;;;7.85;;
54145;SDS011;65909;49.422;7.738;2023-03-16T01:12:01;11.68;;;5.80;;
54145;SDS011;65909;49.422;7.738;2023-03-16T01:14:30;10.98;;;6.65;;
54145;SDS011;65909;49.422;7.738;2023-03-16T01:16:56;13.82;;;6.93;;
54145;SDS011;65909;49.422;7.738;2023-03-16T01:19:21;15.13;;;7.13;;
54145;SDS011;65909;49.422;7.738;2023-03-16T01:21:47;12.45;;;6.65;;
54145;SDS011;65909;49.422;7.738;2023-03-16T01:24:12;10.88;;;7.20;;
54145;SDS011;65909;49.422;7.738;2023-03-16T01:26:38;13.55;;;6.82;;
54145;SDS011;65909;49.422;7.738;2023-03-16T01:29:04;10.00;;;6.45;;
54145;SDS011;65909;49.422;7.738;2023-03-16T01:31:29;10.73;;;6.47;;
54145;SDS011;65909;49.422;7.738;2023-03-16T01:33:55;16.42;;;7.90;;
54145;SDS011;65909;49.422;7.738;2023-03-16T01:36:22;13.07;;;6.40;;
54145;SDS011;65909;49.422;7.738;2023-03-16T01:38:47;12.32;;;6.32;;
54145;SDS011;65909;49.422;7.738;2023-03-16T01:41:12;12.88;;;6.40;;
54145;SDS011;65909;49.422;7.738;2023-03-16T01:43:39;11.77;;;5.90;;
54145;SDS011;65909;49.422;7.738;2023-03-16T01:48:32;13.52;;;7.13;;
54145;SDS011;65909;49.422;7.738;2023-03-16T01:51:01;11.50;;;7.13;;
54145;SDS011;65909;49.422;7.738;2023-03-16T01:53:31;17.33;;;8.38;;
54145;SDS011;65909;49.422;7.738;2023-03-16T01:55:58;13.13;;;7.18;;
54145;SDS011;65909;49.422;7.738;2023-03-16T01:58:27;13.50;;;7.55;;
54145;SDS011;65909;49.422;7.738;2023-03-16T02:00:54;12.93;;;6.45;;
54145;SDS011;65909;49.422;7.738;2023-03-16T02:03:22;11.93;;;5.82;;
54145;SDS011;65909;49.422;7.738;2023-03-16T02:06:00;11.70;;;7.25;;
54145;SDS011;65909;49.422;7.738;2023-03-16T02:08:30;14.75;;;8.27;;
54145;SDS011;65909;49.422;7.738;2023-03-16T02:10:57;13.35;;;7.38;;
54145;SDS011;65909;49.422;7.738;2023-03-16T02:13:23;13.52;;;7.47;;
54145;SDS011;65909;49.422;7.738;2023-03-16T02:15:51;11.10;;;6.85;;
54145;SDS011;65909;49.422;7.738;2023-03-16T02:18:17;12.00;;;7.80;;
54145;SDS011;65909;49.422;7.738;2023-03-16T02:20:50;11.25;;;7.22;;
54145;SDS011;65909;49.422;7.738;2023-03-16T02:23:40;11.40;;;7.00;;
54145;SDS011;65909;49.422;7.738;2023-03-16T02:31:21;10.00;;;6.07;;
54145;SDS011;65909;49.422;7.738;2023-03-16T02:33:46;10.65;;;5.75;;
54145;SDS011;65909;49.422;7.738;2023-03-16T02:36:14;11.70;;;6.70;;
54145;SDS011;65909;49.422;7.738;2023-03-16T02:38:41;11.45;;;7.07;;
54145;SDS011;65909;49.422;7.738;2023-03-16T02:41:10;13.90;;;7.22;;
54145;SDS011;65909;49.422;7.738;2023-03-16T02:43:40;13.23;;;7.32;;
54145;SDS011;65909;49.422;7.738;2023-03-16T02:46:07;12.63;;;6.85;;
54145;SDS011;65909;49.422;7.738;2023-03-16T02:51:06;14.05;;;7.00;;
54145;SDS011;65909;49.422;7.738;2023-03-16T02:53:32;10.18;;;6.45;;
54145;SDS011;65909;49.422;7.738;2023-03-16T02:55:57;13.45;;;7.05;;
54145;SDS011;65909;49.422;7.738;2023-03-16T02:58:22;12.95;;;7.30;;
54145;SDS011;65909;49.422;7.738;2023-03-16T03:00:48;11.68;;;7.07;;
54145;SDS011;65909;49.422;7.738;2023-03-16T03:03:13;11.82;;;6.07;;
54145;SDS011;65909;49.422;7.738;2023-03-16T03:05:39;14.27;;;7.00;;
54145;SDS011;65909;49.422;7.738;2023-03-16T03:08:04;10.90;;;5.68;;
54145;SDS011;65909;49.422;7.738;2023-03-16T03:10:30;10.55;;;6.13;;
54145;SDS011;65909;49.422;7.738;2023-03-16T03:12:55;11.23;;;5.35;;
54145;SDS011;65909;49.422;7.738;2023-03-16T03:15:21;9.65;;;6.05;;
54145;SDS011;65909;49.422;7.738;2023-03-16T03:17:47;10.18;;;6.00;;
54145;SDS011;65909;49.422;7.738;2023-03-16T03:20:12;8.88;;;6.30;;
54145;SDS011;65909;49.422;7.738;2023-03-16T03:22:41;9.38;;;5.50;;
54145;SDS011;65909;49.422;7.738;2023-03-16T03:25:09;12.93;;;6.30;;
54145;SDS011;65909;49.422;7.738;2023-03-16T03:27:35;11.07;;;6.32;;
54145;SDS011;65909;49.422;7.738;2023-03-16T03:30:01;11.65;;;6.68;;
54145;SDS011;65909;49.422;7.738;2023-03-16T03:32:27;11.07;;;6.57;;
54145;SDS011;65909;49.422;7.738;2023-03-16T03:34:52;8.38;;;5.70;;
54145;SDS011;65909;49.422;7.738;2023-03-16T03:37:17;9.95;;;6.18;;
54145;SDS011;65909;49.422;7.738;2023-03-16T03:39:43;13.52;;;6.88;;
54145;SDS011;65909;49.422;7.738;2023-03-16T03:42:09;9.40;;;6.00;;
54145;SDS011;65909;49.422;7.738;2023-03-16T03:44:35;13.65;;;6.90;;
54145;SDS011;65909;49.422;7.738;2023-03-16T03:47:01;10.77;;;5.50;;
54145;SDS011;65909;49.422;7.738;2023-03-16T03:49:26;9.40;;;6.05;;
54145;SDS011;65909;49.422;7.738;2023-03-16T03:51:52;9.82;;;6.50;;
54145;SDS011;65909;49.422;7.738;2023-03-16T03:54:18;10.63;;;5.88;;
54145;SDS011;65909;49.422;7.738;2023-03-16T03:56:44;13.27;;;6.30;;
54145;SDS011;65909;49.422;7.738;2023-03-16T03:59:09;11.50;;;6.18;;
54145;SDS011;65909;49.422;7.738;2023-03-16T04:01:34;9.60;;;6.43;;
54145;SDS011;65909;49.422;7.738;2023-03-16T04:04:00;9.95;;;5.65;;
54145;SDS011;65909;49.422;7.738;2023-03-16T04:06:25;11.98;;;6.35;;
54145;SDS011;65909;49.422;7.738;2023-03-16T04:08:51;11.00;;;6.05;;
54145;SDS011;65909;49.422;7.738;2023-03-16T04:11:18;9.25;;;5.40;;
54145;SDS011;65909;49.422;7.738;2023-03-16T04:13:44;12.10;;;6.13;;
54145;SDS011;65909;49.422;7.738;2023-03-16T04:16:10;8.95;;;5.90;;
54145;SDS011;65909;49.422;7.738;2023-03-16T04:18:40;9.77;;;5.30;;
54145;SDS011;65909;49.422;7.738;2023-03-16T04:21:06;10.82;;;5.32;;
54145;SDS011;65909;49.422;7.738;2023-03-16T04:23:37;11.30;;;7.05;;
54145;SDS011;65909;49.422;7.738;2023-03-16T04:26:02;9.32;;;5.45;;
54145;SDS011;65909;49.422;7.738;2023-03-16T04:28:29;8.32;;;4.95;;
54145;SDS011;65909;49.422;7.738;2023-03-16T04:30:59;7.10;;;4.70;;
54145;SDS011;65909;49.422;7.738;2023-03-16T04:33:25;10.77;;;5.40;;
54145;SDS011;65909;49.422;7.738;2023-03-16T04:35:51;9.65;;;6.03;;
54145;SDS011;65909;49.422;7.738;2023-03-16T04:38:16;10.15;;;5.10;;
54145;SDS011;65909;49.422;7.738;2023-03-16T04:40:42;10.13;;;5.65;;
54145;SDS011;65909;49.422;7.738;2023-03-16T04:43:07;9.52;;;5.47;;
54145;SDS011;65909;49.422;7.738;2023-03-16T04:45:32;8.20;;;5.53;;
54145;SDS011;65909;49.422;7.738;2023-03-16T04:47:58;10.43;;;5.68;;
54145;SDS011;65909;49.422;7.738;2023-03-16T04:50:23;11.35;;;5.75;;
54145;SDS011;65909;49.422;7.738;2023-03-16T04:52:49;9.77;;;6.20;;
54145;SDS011;65909;49.422;7.738;2023-03-16T04:55:15;15.73;;;6.35;;
54145;SDS011;65909;49.422;7.738;2023-03-16T04:57:40;9.70;;;6.13;;
54145;SDS011;65909;49.422;7.738;2023-03-16T05:00:06;10.32;;;6.68;;
54145;SDS011;65909;49.422;7.738;2023-03-16T05:02:36;10.77;;;5.53;;
54145;SDS011;65909;49.422;7.738;2023-03-16T05:05:02;10.30;;;7.25;;
54145;SDS011;65909;49.422;7.738;2023-03-16T05:07:29;8.23;;;6.25;;
54145;SDS011;65909;49.422;7.738;2023-03-16T05:09:55;9.65;;;6.40;;
54145;SDS011;65909;49.422;7.738;2023-03-16T05:12:20;11.10;;;6.50;;
54145;SDS011;65909;49.422;7.738;2023-03-16T05:14:46;12.23;;;5.82;;
54145;SDS011;65909;49.422;7.738;2023-03-16T05:17:11;10.50;;;5.53;;
54145;SDS011;65909;49.422;7.738;2023-03-16T05:19:38;8.25;;;6.43;;
54145;SDS011;65909;49.422;7.738;2023-03-16T05:22:04;8.18;;;5.68;;
54145;SDS011;65909;49.422;7.738;2023-03-16T05:24:30;8.43;;;6.00;;
54145;SDS011;65909;49.422;7.738;2023-03-16T05:26:56;11.32;;;6.75;;
54145;SDS011;65909;49.422;7.738;2023-03-16T05:29:21;10.35;;;6.13;;
54145;SDS011;65909;49.422;7.738;2023-03-16T05:31:46;14.90;;;6.18;;
54145;SDS011;65909;49.422;7.738;2023-03-16T05:34:12;10.60;;;5.93;;
54145;SDS011;65909;49.422;7.738;2023-03-16T05:36:37;10.45;;;5.32;;
54145;SDS011;65909;49.422;7.738;2023-03-16T05:39:03;11.73;;;6.30;;
54145;SDS011;65909;49.422;7.738;2023-03-16T05:41:28;11.15;;;7.00;;
54145;SDS011;65909;49.422;7.738;2023-03-16T05:43:54;11.23;;;6.50;;
54145;SDS011;65909;49.422;7.738;2023-03-16T05:46:19;8.68;;;6.07;;
54145;SDS011;65909;49.422;7.738;2023-03-16T05:48:44;13.10;;;7.38;;
54145;SDS011;65909;49.422;7.738;2023-03-16T05:51:10;10.88;;;6.93;;
54145;SDS011;65909;49.422;7.738;2023-03-16T05:53:37;11.93;;;7.32;;
54145;SDS011;65909;49.422;7.738;2023-03-16T05:56:03;10.00;;;5.18;;
54145;SDS011;65909;49.422;7.738;2023-03-16T05:58:30;10.30;;;5.70;;
54145;SDS011;65909;49.422;7.738;2023-03-16T06:00:58;10.07;;;5.85;;
54145;SDS011;65909;49.422;7.738;2023-03-16T06:03:25;11.73;;;5.97;;
54145;SDS011;65909;49.422;7.738;2023-03-16T06:05:51;12.25;;;6.10;;
54145;SDS011;65909;49.422;7.738;2023-03-16T06:08:17;8.52;;;5.07;;
54145;SDS011;65909;49.422;7.738;2023-03-16T06:10:43;9.43;;;5.88;;
54145;SDS011;65909;49.422;7.738;2023-03-16T06:13:11;11.20;;;5.75;;
54145;SDS011;65909;49.422;7.738;2023-03-16T06:15:37;8.55;;;5.90;;
54145;SDS011;65909;49.422;7.738;2023-03-16T06:18:02;9.57;;;5.68;;
54145;SDS011;65909;49.422;7.738;2023-03-16T06:20:28;10.63;;;5.45;;
54145;SDS011;65909;49.422;7.738;2023-03-16T06:22:53;8.73;;;5.90;;
54145;SDS011;65909;49.422;7.738;2023-03-16T06:25:18;8.85;;;5.93;;
54145;SDS011;65909;49.422;7.738;2023-03-16T06:27:44;8.00;;;5.72;;
54145;SDS011;65909;49.422;7.738;2023-03-16T06:30:10;10.77;;;5.80;;
54145;SDS011;65909;49.422;7.738;2023-03-16T06:32:37;11.45;;;6.43;;
54145;SDS011;65909;49.422;7.738;2023-03-16T06:35:05;8.35;;;4.70;;
54145;SDS011;65909;49.422;7.738;2023-03-16T06:37:31;7.80;;;4.95;;
54145;SDS011;65909;49.422;7.738;2023-03-16T06:39:57;8.90;;;5.15;;
54145;SDS011;65909;49.422;7.738;2023-03-16T06:42:23;9.23;;;4.95;;
54145;SDS011;65909;49.422;7.738;2023-03-16T06:44:48;7.38;;;5.22;;
54145;SDS011;65909;49.422;7.738;2023-03-16T06:47:14;5.97;;;4.80;;
54145;SDS011;65909;49.422;7.738;2023-03-16T06:49:39;8.32;;;4.85;;
54145;SDS011;65909;49.422;7.738;2023-03-16T06:52:05;9.00;;;5.47;;
54145;SDS011;65909;49.422;7.738;2023-03-16T06:54:30;7.38;;;4.53;;
54145;SDS011;65909;49.422;7.738;2023-03-16T06:57:01;8.82;;;4.85;;
54145;SDS011;65909;49.422;7.738;2023-03-16T06:59:27;9.43;;;4.78;;
54145;SDS011;65909;49.422;7.738;2023-03-16T07:01:52;6.63;;;4.60;;
54145;SDS011;65909;49.422;7.738;2023-03-16T07:04:17;5.90;;;4.82;;
54145;SDS011;65909;49.422;7.738;2023-03-16T07:06:43;8.43;;;4.75;;
54145;SDS011;65909;49.422;7.738;2023-03-16T07:09:08;7.88;;;5.45;;
54145;SDS011;65909;49.422;7.738;2023-03-16T07:11:34;7.85;;;4.57;;
54145;SDS011;65909;49.422;7.738;2023-03-16T07:13:59;6.10;;;4.50;;
54145;SDS011;65909;49.422;7.738;2023-03-16T07:16:26;6.93;;;5.38;;
54145;SDS011;65909;49.422;7.738;2023-03-16T07:18:52;8.85;;;5.50;;
54145;SDS011;65909;49.422;7.738;2023-03-16T07:21:17;7.53;;;5.50;;
54145;SDS011;65909;49.422;7.738;2023-03-16T07:23:42;11.25;;;5.32;;
54145;SDS011;65909;49.422;7.738;2023-03-16T07:26:09;6.65;;;4.85;;
54145;SDS011;65909;49.422;7.738;2023-03-16T07:28:36;8.55;;;5.15;;
54145;SDS011;65909;49.422;7.738;2023-03-16T07:31:02;10.00;;;5.35;;
54145;SDS011;65909;49.422;7.738;2023-03-16T07:33:28;10.23;;;5.57;;
54145;SDS011;65909;49.422;7.738;2023-03-16T07:35:53;6.70;;;4.88;;
54145;SDS011;65909;49.422;7.738;2023-03-16T07:38:19;6.82;;;5.05;;
54145;SDS011;65909;49.422;7.738;2023-03-16T07:40:45;8.45;;;5.13;;
54145;SDS011;65909;49.422;7.738;2023-03-16T07:43:11;8.23;;;5.00;;
54145;SDS011;65909;49.422;7.738;2023-03-16T07:45:37;7.57;;;5.05;;
54145;SDS011;65909;49.422;7.738;2023-03-16T07:48:02;5.88;;;4.25;;
54145;SDS011;65909;49.422;7.738;2023-03-16T07:50:27;7.43;;;5.45;;
54145;SDS011;65909;49.422;7.738;2023-03-16T07:52:53;6.97;;;4.90;;
54145;SDS011;65909;49.422;7.738;2023-03-16T07:55:18;7.28;;;4.97;;
54145;SDS011;65909;49.422;7.738;2023-03-16T07:57:44;7.80;;;5.32;;
54145;SDS011;65909;49.422;7.738;2023-03-16T08:00:12;7.38;;;5.28;;
54145;SDS011;65909;49.422;7.738;2023-03-16T08:02:38;9.93;;;5.18;;
54145;SDS011;65909;49.422;7.738;2023-03-16T08:05:03;6.55;;;5.43;;
54145;SDS011;65909;49.422;7.738;2023-03-16T08:07:29;6.60;;;5.53;;
54145;SDS011;65909;49.422;7.738;2023-03-16T08:09:56;6.50;;;4.75;;
54145;SDS011;65909;49.422;7.738;2023-03-16T08:12:21;8.85;;;4.95;;
54145;SDS011;65909;49.422;7.738;2023-03-16T08:14:46;8.52;;;5.28;;
54145;SDS011;65909;49.422;7.738;2023-03-16T08:17:12;8.40;;;5.32;;
54145;SDS011;65909;49.422;7.738;2023-03-16T08:19:37;5.93;;;4.50;;
54145;SDS011;65909;49.422;7.738;2023-03-16T08:22:03;7.80;;;5.70;;
54145;SDS011;65909;49.422;7.738;2023-03-16T08:24:30;7.70;;;4.93;;
54145;SDS011;65909;49.422;7.738;2023-03-16T08:26:56;7.38;;;5.32;;
54145;SDS011;65909;49.422;7.738;2023-03-16T08:29:22;7.80;;;4.93;;
54145;SDS011;65909;49.422;7.738;2023-03-16T08:31:49;8.18;;;5.60;;
54145;SDS011;65909;49.422;7.738;2023-03-16T08:34:16;6.78;;;5.32;;
54145;SDS011;65909;49.422;7.738;2023-03-16T08:36:42;5.88;;;4.72;;
54145;SDS011;65909;49.422;7.738;2023-03-16T08:39:08;9.18;;;5.18;;
54145;SDS011;65909;49.422;7.738;2023-03-16T08:41:33;5.85;;;4.60;;
54145;SDS011;65909;49.422;7.738;2023-03-16T08:43:59;5.97;;;4.72;;
54145;SDS011;65909;49.422;7.738;2023-03-16T08:46:24;6.65;;;5.03;;
54145;SDS011;65909;49.422;7.738;2023-03-16T08:48:50;8.18;;;5.57;;
54145;SDS011;65909;49.422;7.738;2023-03-16T08:51:16;6.05;;;4.80;;
54145;SDS011;65909;49.422;7.738;2023-03-16T08:53:43;6.60;;;5.28;;
54145;SDS011;65909;49.422;7.738;2023-03-16T08:56:12;7.25;;;5.13;;
54145;SDS011;65909;49.422;7.738;2023-03-16T08:58:38;6.47;;;4.72;;
54145;SDS011;65909;49.422;7.738;2023-03-16T09:01:09;6.50;;;4.82;;
54145;SDS011;65909;49.422;7.738;2023-03-16T09:03:37;6.60;;;4.75;;
54145;SDS011;65909;49.422;7.738;2023-03-16T09:06:07;6.45;;;4.78;;
54145;SDS011;65909;49.422;7.738;2023-03-16T09:08:37;5.78;;;4.45;;
54145;SDS011;65909;49.422;7.738;2023-03-16T09:11:04;7.47;;;4.72;;
54145;SDS011;65909;49.422;7.738;2023-03-16T09:13:32;6.07;;;4.50;;
54145;SDS011;65909;49.422;7.738;2023-03-16T09:15:58;6.95;;;4.75;;
54145;SDS011;65909;49.422;7.738;2023-03-16T09:18:24;5.45;;;4.40;;
54145;SDS011;65909;49.422;7.738;2023-03-16T09:20:50;5.60;;;4.32;;
54145;SDS011;65909;49.422;7.738;2023-03-16T09:23:16;6.18;;;4.57;;
54145;SDS011;65909;49.422;7.738;2023-03-16T09:25:43;8.27;;;4.70;;
54145;SDS011;65909;49.422;7.738;2023-03-16T09:28:09;5.85;;;4.78;;
54145;SDS011;65909;49.422;7.738;2023-03-16T09:30:35;5.78;;;4.85;;
54145;SDS011;65909;49.422;7.738;2023-03-16T09:33:01;5.07;;;4.22;;
54145;SDS011;65909;49.422;7.738;2023-03-16T09:35:26;6.40;;;5.25;;
54145;SDS011;65909;49.422;7.738;2023-03-16T09:37:52;5.93;;;4.30;;
54145;SDS011;65909;49.422;7.738;2023-03-16T09:40:24;5.75;;;4.70;;
54145;SDS011;65909;49.422;7.738;2023-03-16T09:43:05;5.80;;;4.70;;
54145;SDS011;65909;49.422;7.738;2023-03-16T09:45:46;6.40;;;4.68;;
54145;SDS011;65909;49.422;7.738;2023-03-16T09:48:18;5.22;;;4.25;;
54145;SDS011;65909;49.422;7.738;2023-03-16T09:50:45;9.00;;;5.15;;
54145;SDS011;65909;49.422;7.738;2023-03-16T09:55:44;5.30;;;4.47;;
54145;SDS011;65909;49.422;7.738;2023-03-16T09:58:15;6.43;;;4.53;;
54145;SDS011;65909;49.422;7.738;2023-03-16T10:00:59;6.30;;;5.65;;
54145;SDS011;65909;49.422;7.738;2023-03-16T10:06:34;8.52;;;4.95;;
54145;SDS011;65909;49.422;7.738;2023-03-16T10:09:20;6.00;;;4.53;;
54145;SDS011;65909;49.422;7.738;2023-03-16T10:11:55;6.50;;;4.28;;
54145;SDS011;65909;49.422;7.738;2023-03-16T10:14:24;5.60;;;4.68;;
54145;SDS011;65909;49.422;7.738;2023-03-16T10:17:15;5.40;;;4.15;;
54145;SDS011;65909;49.422;7.738;2023-03-16T10:20:02;5.20;;;4.30;;
54145;SDS011;65909;49.422;7.738;2023-03-16T10:22:33;6.82;;;4.93;;
54145;SDS011;65909;49.422;7.738;2023-03-16T10:27:44;6.00;;;4.90;;
54145;SDS011;65909;49.422;7.738;2023-03-16T10:32:38;6.35;;;4.60;;
54145;SDS011;65909;49.422;7.738;2023-03-16T10:35:15;6.03;;;4.78;;
54145;SDS011;65909;49.422;7.738;2023-03-16T10:40:15;6.32;;;4.18;;
54145;SDS011;65909;49.422;7.738;2023-03-16T10:42:44;6.13;;;4.25;;
54145;SDS011;65909;49.422;7.738;2023-03-16T10:45:30;5.28;;;4.53;;
54145;SDS011;65909;49.422;7.738;2023-03-16T10:48:05;4.88;;;4.00;;
54145;SDS011;65909;49.422;7.738;2023-03-16T10:50:39;5.88;;;4.05;;
54145;SDS011;65909;49.422;7.738;2023-03-16T10:53:14;5.00;;;3.80;;
54145;SDS011;65909;49.422;7.738;2023-03-16T10:55:44;5.28;;;3.90;;
54145;SDS011;65909;49.422;7.738;2023-03-16T10:58:21;6.72;;;3.97;;
54145;SDS011;65909;49.422;7.738;2023-03-16T11:00:49;5.05;;;4.10;;
54145;SDS011;65909;49.422;7.738;2023-03-16T11:03:20;5.32;;;4.03;;
54145;SDS011;65909;49.422;7.738;2023-03-16T11:05:58;4.55;;;3.80;;
54145;SDS011;65909;49.422;7.738;2023-03-16T11:08:26;5.53;;;4.22;;
54145;SDS011;65909;49.422;7.738;2023-03-16T11:10:56;4.53;;;3.60;;
54145;SDS011;65909;49.422;7.738;2023-03-16T11:13:26;4.85;;;3.90;;
54145;SDS011;65909;49.422;7.738;2023-03-16T11:18:45;5.27;;;3.37;;
54145;SDS011;65909;49.422;7.738;2023-03-16T11:21:15;5.97;;;3.90;;
54145;SDS011;65909;49.422;7.738;2023-03-16T11:23:54;6.10;;;4.18;;
54145;SDS011;65909;49.422;7.738;2023-03-16T11:26:54;3.75;;;3.30;;
54145;SDS011;65909;49.422;7.738;2023-03-16T11:29:18;3.92;;;3.53;;
54145;SDS011;65909;49.422;7.738;2023-03-16T11:32:08;5.20;;;4.63;;
54145;SDS011;65909;49.422;7.738;2023-03-16T11:34:38;6.70;;;4.32;;
54145;SDS011;65909;49.422;7.738;2023-03-16T11:40:08;6.05;;;3.78;;
54145;SDS011;65909;49.422;7.738;2023-03-16T11:45:44;4.82;;;3.83;;
54145;SDS011;65909;49.422;7.738;2023-03-16T11:48:36;5.50;;;3.72;;
54145;SDS011;65909;49.422;7.738;2023-03-16T11:51:04;6.25;;;4.20;;
54145;SDS011;65909;49.422;7.738;2023-03-16T11:53:49;5.05;;;4.07;;
54145;SDS011;65909;49.422;7.738;2023-03-16T11:56:30;5.47;;;4.18;;
54145;SDS011;65909;49.422;7.738;2023-03-16T11:59:19;4.85;;;4.20;;
54145;SDS011;65909;49.422;7.738;2023-03-16T12:04:34;4.90;;;3.92;;
54145;SDS011;65909;49.422;7.738;2023-03-16T12:07:50;6.00;;;4.72;;
54145;SDS011;65909;49.422;7.738;2023-03-16T12:10:29;4.50;;;3.47;;
54145;SDS011;65909;49.422;7.738;2023-03-16T12:18:16;4.53;;;3.60;;
54145;SDS011;65909;49.422;7.738;2023-03-16T12:21:01;5.70;;;3.80;;
54145;SDS011;65909;49.422;7.738;2023-03-16T12:23:33;5.75;;;4.43;;
54145;SDS011;65909;49.422;7.738;2023-03-16T12:26:03;5.95;;;3.75;;
54145;SDS011;65909;49.422;7.738;2023-03-16T12:28:29;5.43;;;4.45;;
54145;SDS011;65909;49.422;7.738;2023-03-16T12:31:16;6.75;;;4.32;;
54145;SDS011;65909;49.422;7.738;2023-03-16T12:34:01;5.53;;;4.18;;
54145;SDS011;65909;49.422;7.738;2023-03-16T12:39:30;5.85;;;4.45;;
54145;SDS011;65909;49.422;7.738;2023-03-16T12:47:32;7.20;;;4.65;;
54145;SDS011;65909;49.422;7.738;2023-03-16T12:50:10;6.95;;;4.13;;
54145;SDS011;65909;49.422;7.738;2023-03-16T12:52:44;5.53;;;3.72;;
54145;SDS011;65909;49.422;7.738;2023-03-16T12:57:42;6.53;;;4.10;;
54145;SDS011;65909;49.422;7.738;2023-03-16T13:00:09;6.18;;;4.22;;
54145;SDS011;65909;49.422;7.738;2023-03-16T13:02:37;6.20;;;4.10;;
54145;SDS011;65909;49.422;7.738;2023-03-16T13:05:12;5.43;;;4.38;;
54145;SDS011;65909;49.422;7.738;2023-03-16T13:07:47;5.85;;;4.90;;
54145;SDS011;65909;49.422;7.738;2023-03-16T13:10:30;6.22;;;4.70;;
54145;SDS011;65909;49.422;7.738;2023-03-16T13:13:05;5.75;;;4.20;;
54145;SDS011;65909;49.422;7.738;2023-03-16T13:15:42;7.72;;;4.50;;
54145;SDS011;65909;49.422;7.738;2023-03-16T13:20:49;5.18;;;3.75;;
54145;SDS011;65909;49.422;7.738;2023-03-16T13:28:35;5.47;;;4.18;;
54145;SDS011;65909;49.422;7.738;2023-03-16T13:31:03;5.32;;;3.83;;
54145;SDS011;65909;49.422;7.738;2023-03-16T13:33:31;5.88;;;4.18;;
54145;SDS011;65909;49.422;7.738;2023-03-16T13:36:00;5.90;;;3.90;;
54145;SDS011;65909;49.422;7.738;2023-03-16T13:38:28;8.50;;;3.97;;
54145;SDS011;65909;49.422;7.738;2023-03-16T13:41:01;5.53;;;3.80;;
54145;SDS011;65909;49.422;7.738;2023-03-16T13:43:34;6.15;;;4.43;;
54145;SDS011;65909;49.422;7.738;2023-03-16T13:46:19;7.78;;;4.07;;
54145;SDS011;65909;49.422;7.738;2023-03-16T13:48:46;5.97;;;3.65;;
54145;SDS011;65909;49.422;7.738;2023-03-16T13:51:13;5.65;;;3.85;;
54145;SDS011;65909;49.422;7.738;2023-03-16T13:53:42;6.88;;;4.22;;
54145;SDS011;65909;49.422;7.738;2023-03-16T13:56:11;5.13;;;4.13;;
54145;SDS011;65909;49.422;7.738;2023-03-16T13:58:42;7.45;;;4.70;;
54145;SDS011;65909;49.422;7.738;2023-03-16T14:01:12;6.47;;;4.30;;
54145;SDS011;65909;49.422;7.738;2023-03-16T14:03:50;7.30;;;4.35;;
54145;SDS011;65909;49.422;7.738;2023-03-16T14:06:34;5.97;;;4.18;;
54145;SDS011;65909;49.422;7.738;2023-03-16T14:09:01;7.23;;;4.07;;
54145;SDS011;65909;49.422;7.738;2023-03-16T14:11:29;7.03;;;4.43;;
54145;SDS011;65909;49.422;7.738;2023-03-16T14:13:55;7.55;;;4.18;;
54145;SDS011;65909;49.422;7.738;2023-03-16T14:16:23;5.43;;;3.88;;
54145;SDS011;65909;49.422;7.738;2023-03-16T14:18:57;5.13;;;3.65;;
54145;SDS011;65909;49.422;7.738;2023-03-16T14:21:27;4.85;;;3.25;;
54145;SDS011;65909;49.422;7.738;2023-03-16T14:24:00;6.72;;;3.83;;
54145;SDS011;65909;49.422;7.738;2023-03-16T14:26:37;4.63;;;3.60;;
54145;SDS011;65909;49.422;7.738;2023-03-16T14:29:19;6.88;;;4.35;;
54145;SDS011;65909;49.422;7.738;2023-03-16T14:31:52;6.95;;;4.07;;
54145;SDS011;65909;49.422;7.738;2023-03-16T14:34:26;6.00;;;4.50;;
54145;SDS011;65909;49.422;7.738;2023-03-16T14:37:12;6.00;;;3.95;;
54145;SDS011;65909;49.422;7.738;2023-03-16T14:39:41;5.10;;;4.13;;
54145;SDS011;65909;49.422;7.738;2023-03-16T14:42:14;8.93;;;3.95;;
54145;SDS011;65909;49.422;7.738;2023-03-16T14:44:45;6.47;;;4.00;;
54145;SDS011;65909;49.422;7.738;2023-03-16T14:47:15;4.93;;;3.47;;
54145;SDS011;65909;49.422;7.738;2023-03-16T14:49:47;5.63;;;3.53;;
54145;SDS011;65909;49.422;7.738;2023-03-16T14:52:16;4.47;;;3.25;;
54145;SDS011;65909;49.422;7.738;2023-03-16T14:54:49;4.70;;;3.50;;
54145;SDS011;65909;49.422;7.738;2023-03-16T14:57:16;5.82;;;3.20;;
54145;SDS011;65909;49.422;7.738;2023-03-16T14:59:42;5.35;;;3.67;;
54145;SDS011;65909;49.422;7.738;2023-03-16T15:02:15;6.63;;;3.10;;
54145;SDS011;65909;49.422;7.738;2023-03-16T15:04:44;7.82;;;3.80;;
54145;SDS011;65909;49.422;7.738;2023-03-16T15:09:48;5.00;;;3.58;;
54145;SDS011;65909;49.422;7.738;2023-03-16T15:12:16;4.60;;;3.17;;
54145;SDS011;65909;49.422;7.738;2023-03-16T15:14:43;5.50;;;3.42;;
54145;SDS011;65909;49.422;7.738;2023-03-16T15:17:28;5.28;;;3.25;;
54145;SDS011;65909;49.422;7.738;2023-03-16T15:19:53;3.90;;;2.85;;
54145;SDS011;65909;49.422;7.738;2023-03-16T15:22:28;6.88;;;3.40;;
54145;SDS011;65909;49.422;7.738;2023-03-16T15:24:55;6.07;;;3.08;;
54145;SDS011;65909;49.422;7.738;2023-03-16T15:27:22;4.78;;;3.17;;
54145;SDS011;65909;49.422;7.738;2023-03-16T15:29:51;4.93;;;2.80;;
54145;SDS011;65909;49.422;7.738;2023-03-16T15:32:17;4.50;;;2.97;;
54145;SDS011;65909;49.422;7.738;2023-03-16T15:34:42;5.30;;;3.40;;
54145;SDS011;65909;49.422;7.738;2023-03-16T15:37:14;6.18;;;2.92;;
54145;SDS011;65909;49.422;7.738;2023-03-16T15:39:41;6.35;;;2.95;;
54145;SDS011;65909;49.422;7.738;2023-03-16T15:42:12;4.97;;;2.97;;
54145;SDS011;65909;49.422;7.738;2023-03-16T15:44:39;5.13;;;3.38;;
54145;SDS011;65909;49.422;7.738;2023-03-16T15:47:04;5.93;;;3.20;;
54145;SDS011;65909;49.422;7.738;2023-03-16T15:49:30;6.68;;;3.45;;
54145;SDS011;65909;49.422;7.738;2023-03-16T15:51:55;3.35;;;2.33;;
54145;SDS011;65909;49.422;7.738;2023-03-16T15:54:21;4.32;;;2.80;;